Time;durP1;ratioP1;P1;durP2;ratioP2;P2;SDS_P1;SDS_P2;PMS_P1;PMS_P2;Temp;Humidity;BMP_temperature;BMP_pressure;BME280_temperature;BME280_humidity;BME280_pressure;Samples;Min_cycle;Max_cycle;Signal;HPM_P1;HPM_P2
2022/11/13 00:02:05;;;;;;;2.87;1.70;;;;;;;-145.69;100.00;52691.94;5115052;28;20194;-81
2022/11/13 00:04:32;;;;;;;4.00;2.00;;;;;;;-145.69;100.00;52682.03;5115495;28;20202;-82
2022/11/13 00:06:58;;;;;;;3.60;1.93;;;;;;;-145.69;100.00;52650.34;5115509;28;20194;-82
2022/11/13 00:09:25;;;;;;;6.37;2.33;;;;;;;-145.69;100.00;52686.00;5115536;28;20213;-82
2022/11/13 00:11:56;;;;;;;5.53;2.37;;;;;;;-145.69;100.00;52658.28;5115433;28;20205;-83
2022/11/13 00:14:23;;;;;;;4.90;2.87;;;;;;;-145.69;100.00;52721.66;5115585;28;20236;-81
2022/11/13 00:16:49;;;;;;;5.77;2.87;;;;;;;-145.69;100.00;52682.03;5115549;28;20627;-82
2022/11/13 00:19:17;;;;;;;5.83;3.20;;;;;;;-145.69;100.00;52691.94;5116047;28;20193;-82
2022/11/13 00:21:44;;;;;;;6.70;3.30;;;;;;;-145.69;100.00;52711.75;5116121;28;20201;-82
2022/11/13 00:24:10;;;;;;;6.93;3.27;;;;;;;-145.69;100.00;52640.44;5115215;28;20556;-82
2022/11/13 00:26:38;;;;;;;5.20;2.90;;;;;;;-145.69;100.00;52719.66;5115462;28;20205;-82
2022/11/13 00:29:05;;;;;;;6.67;3.03;;;;;;;-145.69;100.00;52709.78;5114507;28;20201;-81
2022/11/13 00:31:31;;;;;;;10.00;3.50;;;;;;;-145.69;100.00;52670.16;5114215;28;20224;-82
2022/11/13 00:33:59;;;;;;;8.17;2.20;;;;;;;-145.69;100.00;52662.22;5113975;28;20225;-81
2022/11/13 00:36:28;;;;;;;3.90;1.97;;;;;;;-145.69;100.00;52705.81;5114156;28;20203;-82
2022/11/13 00:38:55;;;;;;;4.43;2.40;;;;;;;-145.69;100.00;52682.03;5113900;28;20208;-81
2022/11/13 00:41:22;;;;;;;5.17;2.70;;;;;;;-145.69;100.00;52672.13;5113723;28;20683;-82
2022/11/13 00:43:49;;;;;;;6.03;3.40;;;;;;;-145.69;100.00;52622.63;5113630;28;20197;-81
2022/11/13 00:46:15;;;;;;;20.20;4.00;;;;;;;-145.69;100.00;52666.19;5114072;28;20197;-81
2022/11/13 00:48:44;;;;;;;4.90;2.67;;;;;;;-145.69;100.00;52662.22;5113916;28;20204;-82
2022/11/13 00:51:11;;;;;;;5.63;3.10;;;;;;;-145.69;100.00;52701.84;5113846;28;20659;-81
2022/11/13 00:53:39;;;;;;;5.87;3.10;;;;;;;-145.69;100.00;52695.91;5113509;28;20228;-81
2022/11/13 00:56:09;;;;;;;5.00;2.47;;;;;;;-145.69;100.00;52682.03;5114070;28;20606;-81
2022/11/13 00:58:36;;;;;;;5.13;2.90;;;;;;;-145.69;100.00;52686.00;5113641;28;20675;-82
2022/11/13 01:01:08;;;;;;;6.83;3.37;;;;;;;-145.69;100.00;52686.00;5113565;28;20220;-81
2022/11/13 01:03:34;;;;;;;9.10;3.53;;;;;;;-145.69;100.00;52672.13;5098331;28;20319;-82
2022/11/13 01:06:09;;;;;;;6.77;3.57;;;;;;;-145.69;100.00;52678.09;5113124;28;20200;-81
2022/11/13 01:08:36;;;;;;;11.20;4.10;;;;;;;-145.69;100.00;52666.19;5113288;28;20665;-81
2022/11/13 01:11:08;;;;;;;10.10;4.57;;;;;;;-145.69;100.00;52693.94;5112721;28;20201;-81
2022/11/13 01:13:35;;;;;;;11.00;4.27;;;;;;;-145.69;100.00;52680.06;5097993;28;20221;-81
2022/11/13 01:16:05;;;;;;;9.87;4.60;;;;;;;-145.69;100.00;52682.03;5112760;28;20652;-81
2022/11/13 01:18:32;;;;;;;10.70;4.13;;;;;;;-145.69;100.00;52678.09;5113214;28;20555;-83
2022/11/13 01:21:03;;;;;;;8.90;4.37;;;;;;;-145.69;100.00;52662.22;5115037;28;20280;-82
2022/11/13 01:23:30;;;;;;;7.97;3.37;;;;;;;-145.69;100.00;52705.81;5119157;28;20197;-82
2022/11/13 01:26:06;;;;;;;10.67;4.57;;;;;;;-145.69;100.00;52709.78;5119413;28;20201;-82
2022/11/13 01:28:32;;;;;;;6.37;3.87;;;;;;;-145.69;100.00;52721.66;5119636;28;20233;-82
2022/11/13 01:30:59;;;;;;;5.90;3.40;;;;;;;-145.69;100.00;52691.94;5118963;28;20197;-83
2022/11/13 01:33:25;;;;;;;5.63;3.00;;;;;;;-145.69;100.00;52672.13;5120380;28;20231;-82
2022/11/13 01:35:52;;;;;;;8.83;2.90;;;;;;;-145.69;100.00;52654.31;5120374;28;20232;-82
2022/11/13 01:38:18;;;;;;;8.57;3.23;;;;;;;-145.69;100.00;52674.13;5119381;28;20198;-82
2022/11/13 01:40:45;;;;;;;5.00;2.83;;;;;;;-145.69;100.00;52693.94;5119565;28;20209;-82
2022/11/13 01:43:23;;;;;;;3.93;2.60;;;;;;;-145.69;100.00;52684.03;5119743;28;20193;-83
2022/11/13 01:46:21;;;;;;;8.10;4.00;;;;;;;-145.69;100.00;52725.63;5120040;28;20196;-82
2022/11/13 01:48:51;;;;;;;8.00;3.90;;;;;;;-145.69;100.00;52705.81;5117897;28;20201;-82
2022/11/13 01:51:25;;;;;;;10.37;4.37;;;;;;;-145.69;100.00;52713.72;5119645;28;20219;-82
2022/11/13 01:53:53;;;;;;;10.87;5.13;;;;;;;-145.69;100.00;52676.09;5118905;28;20232;-82
2022/11/13 01:56:19;;;;;;;6.33;3.10;;;;;;;-145.69;100.00;52674.13;5118564;28;20199;-82
2022/11/13 01:58:53;;;;;;;5.90;3.07;;;;;;;-145.69;100.00;52691.94;5118939;28;20199;-82
2022/11/13 02:01:19;;;;;;;15.30;5.40;;;;;;;-145.69;100.00;52680.06;5119462;28;20205;-82
2022/11/13 02:03:46;;;;;;;10.97;5.20;;;;;;;-145.69;100.00;52678.09;5119276;28;20292;-83
2022/11/13 02:06:13;;;;;;;16.63;5.47;;;;;;;-145.69;100.00;52686.00;5118969;28;20205;-82
2022/11/13 02:08:40;;;;;;;16.57;6.83;;;;;;;-145.69;100.00;52717.69;5119070;28;20223;-83
2022/11/13 02:11:06;;;;;;;21.07;7.37;;;;;;;-145.69;100.00;52715.72;5119315;27;20201;-83
2022/11/13 02:13:33;;;;;;;20.10;8.03;;;;;;;-145.69;100.00;52697.88;5119001;28;20225;-83
2022/11/13 02:16:01;;;;;;;17.37;7.13;;;;;;;-145.69;100.00;52729.56;5119694;28;20224;-83
2022/11/13 02:18:30;;;;;;;13.73;4.83;;;;;;;-145.69;100.00;52717.69;5118735;28;20205;-83
2022/11/13 02:21:05;;;;;;;9.03;4.27;;;;;;;-145.69;100.00;52674.13;5119139;28;20284;-83
2022/11/13 02:23:39;;;;;;;16.93;4.53;;;;;;;-145.69;100.00;52678.09;5119302;28;20205;-83
2022/11/13 02:26:10;;;;;;;13.50;6.17;;;;;;;-145.69;100.00;52664.22;5118637;28;20201;-81
2022/11/13 02:28:37;;;;;;;12.73;5.63;;;;;;;-145.69;100.00;52687.97;5116839;28;20647;-83
2022/11/13 02:31:08;;;;;;;9.53;4.77;;;;;;;-145.69;100.00;52701.84;5118147;28;20235;-83
2022/11/13 02:33:35;;;;;;;8.60;3.47;;;;;;;-145.69;100.00;52646.41;5116838;28;20278;-83
2022/11/13 02:36:02;;;;;;;13.70;4.73;;;;;;;-145.69;100.00;52705.81;5117419;28;20320;-82
2022/11/13 02:38:29;;;;;;;8.43;3.43;;;;;;;-145.69;100.00;52697.88;5117465;28;20194;-82
2022/11/13 02:40:56;;;;;;;15.50;5.53;;;;;;;-145.69;100.00;52707.78;5117420;28;20209;-82
2022/11/13 02:43:24;;;;;;;25.80;8.87;;;;;;;-145.69;100.00;52678.09;5116123;28;20807;-82
2022/11/13 02:45:51;;;;;;;28.77;10.90;;;;;;;-145.69;100.00;52717.69;5117823;28;20194;-83
2022/11/13 02:48:17;;;;;;;45.17;15.33;;;;;;;-145.69;100.00;52686.00;5117530;28;20198;-82
2022/11/13 02:50:45;;;;;;;44.80;13.97;;;;;;;-145.69;100.00;52686.00;5117046;28;20227;-82
2022/11/13 02:53:11;;;;;;;53.30;15.37;;;;;;;-145.69;100.00;52666.19;5116026;28;20210;-82
2022/11/13 02:55:38;;;;;;;36.43;11.60;;;;;;;-145.69;100.00;52682.03;5116478;28;20232;-82
2022/11/13 02:58:04;;;;;;;28.93;9.23;;;;;;;-145.69;100.00;52684.03;5115801;28;20695;-83
2022/11/13 03:00:32;;;;;;;22.77;7.83;;;;;;;-145.69;100.00;52686.00;5116507;28;20201;-83
2022/11/13 03:02:59;;;;;;;42.23;9.60;;;;;;;-145.69;100.00;52668.19;5116619;28;20271;-82
2022/11/13 03:05:25;;;;;;;50.43;11.97;;;;;;;-145.69;100.00;52664.22;5114875;28;20209;-81
2022/11/13 03:07:52;;;;;;;45.13;14.23;;;;;;;-145.69;100.00;52654.31;5114947;28;20202;-81
2022/11/13 03:10:18;;;;;;;33.70;11.43;;;;;;;-145.69;100.00;52678.09;5115075;28;20713;-81
2022/11/13 03:12:45;;;;;;;41.17;12.20;;;;;;;-145.69;100.00;52693.94;5115026;28;20206;-81
2022/11/13 03:15:11;;;;;;;103.33;14.97;;;;;;;-145.69;100.00;52672.13;5114906;28;20754;-81
2022/11/13 03:17:39;;;;;;;35.77;13.27;;;;;;;-145.69;100.00;52721.66;5114578;28;20201;-80
2022/11/13 03:20:07;;;;;;;44.50;13.27;;;;;;;-145.69;100.00;52666.19;5114684;28;20212;-81
2022/11/13 03:22:34;;;;;;;50.27;13.27;;;;;;;-145.69;100.00;52717.69;5114643;28;20247;-80
2022/11/13 03:25:00;;;;;;;34.73;12.00;;;;;;;-145.69;100.00;52674.13;5114844;28;20205;-81
2022/11/13 03:27:27;;;;;;;27.50;10.83;;;;;;;-145.69;100.00;52686.00;5114839;28;20240;-81
2022/11/13 03:29:53;;;;;;;63.07;13.43;;;;;;;-145.69;100.00;52674.13;5114856;28;20229;-82
2022/11/13 03:32:20;;;;;;;56.20;13.00;;;;;;;-145.69;100.00;52713.72;5114167;28;20580;-82
2022/11/13 03:34:47;;;;;;;56.77;14.40;;;;;;;-145.69;100.00;52686.00;5114262;28;20244;-81
2022/11/13 03:37:14;;;;;;;70.40;16.13;;;;;;;-145.69;100.00;52684.03;5114615;27;20216;-82
2022/11/13 03:39:41;;;;;;;56.83;14.97;;;;;;;-145.69;100.00;52695.91;5114474;28;20200;-81
2022/11/13 03:42:07;;;;;;;40.70;13.40;;;;;;;-145.69;100.00;52666.19;5114522;28;20201;-82
2022/11/13 03:44:34;;;;;;;51.93;14.07;;;;;;;-145.69;100.00;52678.09;5114522;28;20221;-81
2022/11/13 03:47:00;;;;;;;55.00;14.47;;;;;;;-145.69;100.00;52638.47;5114354;28;20194;-82
2022/11/13 03:49:27;;;;;;;103.00;16.20;;;;;;;-145.69;100.00;52658.28;5114508;28;20197;-82
2022/11/13 03:51:56;;;;;;;53.10;13.53;;;;;;;-145.69;100.00;52691.94;5114478;28;20201;-82
2022/11/13 03:54:22;;;;;;;40.70;12.63;;;;;;;-145.69;100.00;52701.84;5114169;28;20224;-82
2022/11/13 03:56:49;;;;;;;59.10;12.27;;;;;;;-145.69;100.00;52686.00;5114335;28;20201;-81
2022/11/13 03:59:16;;;;;;;42.90;10.47;;;;;;;-145.69;100.00;52723.63;5114191;28;20201;-82
2022/11/13 04:01:43;;;;;;;27.83;10.20;;;;;;;-145.69;100.00;52684.03;5113874;28;20208;-81
2022/11/13 04:04:09;;;;;;;48.13;11.23;;;;;;;-145.69;100.00;52670.16;5113861;28;20213;-81
2022/11/13 04:06:36;;;;;;;25.87;9.33;;;;;;;-145.69;100.00;52686.00;5114076;28;20205;-81
2022/11/13 04:09:06;;;;;;;46.53;11.10;;;;;;;-145.69;100.00;52676.09;5113795;28;20208;-82
2022/11/13 04:11:33;;;;;;;40.37;10.57;;;;;;;-145.69;100.00;52715.72;5114052;28;20672;-82
2022/11/13 04:14:00;;;;;;;25.37;9.07;;;;;;;-145.69;100.00;52703.81;5101802;28;20671;-81
2022/11/13 04:16:26;;;;;;;28.07;10.23;;;;;;;-145.69;100.00;52703.81;5102602;28;20197;-81
2022/11/13 04:18:53;;;;;;;52.67;9.73;;;;;;;-145.69;100.00;52686.00;5114022;28;20232;-82
2022/11/13 04:21:19;;;;;;;39.90;10.30;;;;;;;-145.69;100.00;52699.88;5113342;28;20252;-82
2022/11/13 04:23:46;;;;;;;98.43;11.33;;;;;;;-145.69;100.00;52713.72;5113679;28;20237;-82
2022/11/13 04:26:14;;;;;;;28.07;9.03;;;;;;;-145.69;100.00;52695.91;5113851;28;20215;-82
2022/11/13 04:28:41;;;;;;;53.80;10.27;;;;;;;-145.69;100.00;52705.81;5113608;28;20198;-81
2022/11/13 04:31:07;;;;;;;16.30;8.20;;;;;;;-145.69;100.00;52682.03;5113347;28;20224;-82
2022/11/13 04:33:33;;;;;;;35.40;9.17;;;;;;;-145.69;100.00;52666.19;5113459;28;20200;-81
2022/11/13 04:36:03;;;;;;;117.37;13.07;;;;;;;-145.69;100.00;52674.13;5113079;27;20237;-81
2022/11/13 04:38:34;;;;;;;38.27;8.97;;;;;;;-145.69;100.00;52687.97;5113553;28;20201;-82
2022/11/13 04:43:46;;;;;;;19.37;8.10;;;;;;;-145.69;100.00;52699.88;5113787;28;20243;-82
2022/11/13 04:46:13;;;;;;;24.77;8.83;;;;;;;-145.69;100.00;52689.97;5114263;28;20205;-82
2022/11/13 04:48:39;;;;;;;19.57;8.23;;;;;;;-145.69;100.00;52711.75;5113260;28;20197;-81
2022/11/13 04:51:06;;;;;;;35.53;9.10;;;;;;;-145.69;100.00;52711.75;5113232;28;20204;-82
2022/11/13 04:53:33;;;;;;;23.97;8.90;;;;;;;-145.69;100.00;52687.97;5113546;28;20208;-82
2022/11/13 04:56:00;;;;;;;27.13;8.20;;;;;;;-145.69;100.00;52705.81;5114590;28;20252;-82
2022/11/13 04:58:26;;;;;;;14.00;7.17;;;;;;;-145.69;100.00;52678.09;5120387;28;20197;-82
2022/11/13 05:00:54;;;;;;;13.40;7.20;;;;;;;-145.69;100.00;52709.78;5120299;28;20201;-82
2022/11/13 05:03:20;;;;;;;41.23;8.87;;;;;;;-145.69;100.00;52719.66;5119673;28;20552;-82
2022/11/13 05:05:47;;;;;;;26.83;8.00;;;;;;;-145.69;100.00;52674.13;5120140;27;20201;-82
2022/11/13 05:08:15;;;;;;;17.93;7.83;;;;;;;-145.69;100.00;52727.59;5120095;27;20200;-82
2022/11/13 05:10:41;;;;;;;39.07;8.73;;;;;;;-145.69;100.00;52707.78;5119656;27;20193;-81
2022/11/13 05:13:10;;;;;;;25.93;8.23;;;;;;;-145.69;100.00;52701.84;5120089;28;20197;-82
2022/11/13 05:15:37;;;;;;;94.80;11.03;;;;;;;-145.69;100.00;52676.09;5120126;28;20316;-82
2022/11/13 05:18:05;;;;;;;22.30;8.70;;;;;;;-145.69;100.00;52687.97;5120109;27;20210;-81
2022/11/13 05:20:31;;;;;;;47.70;8.83;;;;;;;-145.69;100.00;52697.88;5119636;28;20684;-82
2022/11/13 05:23:01;;;;;;;52.40;9.77;;;;;;;-145.69;100.00;52719.66;5119827;28;20226;-82
2022/11/13 05:25:30;;;;;;;55.90;10.33;;;;;;;-145.69;100.00;52686.00;5120124;28;20204;-82
2022/11/13 05:27:57;;;;;;;32.80;8.40;;;;;;;-145.69;100.00;52713.72;5120397;28;20250;-82
2022/11/13 05:30:24;;;;;;;22.33;8.70;;;;;;;-145.69;100.00;52693.94;5119694;28;20204;-82
2022/11/13 05:32:51;;;;;;;26.20;8.37;;;;;;;-145.69;100.00;52709.78;5119916;28;20201;-82
2022/11/13 05:35:19;;;;;;;123.20;11.73;;;;;;;-145.69;100.00;52682.03;5119312;28;20240;-81
2022/11/13 05:37:49;;;;;;;31.33;8.80;;;;;;;-145.69;100.00;52693.94;5119592;28;20206;-81
2022/11/13 05:40:18;;;;;;;136.93;13.03;;;;;;;-145.69;100.00;52703.81;5119957;28;20571;-82
2022/11/13 05:42:47;;;;;;;14.83;7.67;;;;;;;-145.69;100.00;52729.56;5119724;27;20204;-82
2022/11/13 05:45:14;;;;;;;111.07;11.67;;;;;;;-145.69;100.00;52731.56;5120019;28;20197;-82
2022/11/13 05:47:41;;;;;;;31.13;8.13;;;;;;;-145.69;100.00;52684.03;5119215;27;20280;-82
2022/11/13 05:50:11;;;;;;;54.53;9.13;;;;;;;-145.69;100.00;52703.81;5119611;28;20655;-82
2022/11/13 05:52:39;;;;;;;37.03;8.20;;;;;;;-145.69;100.00;52709.78;5119939;28;20201;-82
2022/11/13 05:55:07;;;;;;;14.83;7.37;;;;;;;-145.69;100.00;52699.88;5119829;28;20586;-81
2022/11/13 05:57:33;;;;;;;12.93;6.80;;;;;;;-145.69;100.00;52697.88;5119768;28;20224;-81
2022/11/13 06:00:00;;;;;;;15.90;6.80;;;;;;;-145.69;100.00;52670.16;5119461;28;20193;-81
2022/11/13 06:02:27;;;;;;;28.87;8.17;;;;;;;-145.69;100.00;52699.88;5119688;28;20208;-81
2022/11/13 06:04:54;;;;;;;134.63;10.63;;;;;;;-145.69;100.00;52695.91;5119384;28;20237;-81
2022/11/13 06:07:20;;;;;;;110.00;10.27;;;;;;;-145.69;100.00;52731.56;5118080;27;20232;-81
2022/11/13 06:09:51;;;;;;;181.10;11.90;;;;;;;-145.69;100.00;52684.03;5115444;28;20205;-81
2022/11/13 06:12:17;;;;;;;220.67;19.80;;;;;;;-145.69;100.00;52713.72;5116284;28;20197;-81
2022/11/13 06:14:44;;;;;;;173.03;13.40;;;;;;;-145.69;100.00;52701.84;5113752;28;20262;-81
2022/11/13 06:17:11;;;;;;;52.67;8.43;;;;;;;-145.69;100.00;52693.94;5097183;28;20557;-80
2022/11/13 06:19:37;;;;;;;123.97;11.27;;;;;;;-145.69;100.00;52703.81;5095814;28;20202;-81
2022/11/13 06:22:04;;;;;;;80.97;10.20;;;;;;;-145.69;100.00;52682.03;5095743;28;20202;-81
2022/11/13 06:24:30;;;;;;;125.33;11.53;;;;;;;-145.69;100.00;52693.94;5095109;28;20198;-81
2022/11/13 06:26:58;;;;;;;275.93;14.30;;;;;;;-145.69;100.00;52729.56;5095726;28;20202;-81
2022/11/13 06:29:24;;;;;;;280.63;14.53;;;;;;;-145.69;100.00;52709.78;5095478;28;20588;-81
2022/11/13 06:31:51;;;;;;;92.27;8.90;;;;;;;-145.69;100.00;52739.47;5114955;28;20193;-81
2022/11/13 06:34:19;;;;;;;13.97;6.80;;;;;;;-145.69;100.00;52713.72;5115825;28;20229;-80
2022/11/13 06:36:46;;;;;;;31.33;7.40;;;;;;;-145.69;100.00;52717.69;5115461;28;20228;-80
2022/11/13 06:39:12;;;;;;;9.97;6.13;;;;;;;-145.69;100.00;52703.81;5115720;28;20198;-80
2022/11/13 06:41:39;;;;;;;34.10;7.87;;;;;;;-145.69;100.00;52701.84;5115290;28;20668;-81
2022/11/13 06:44:07;;;;;;;72.47;8.63;;;;;;;-145.69;100.00;52731.56;5115672;28;20197;-81
2022/11/13 06:46:33;;;;;;;14.60;7.63;;;;;;;-145.69;100.00;52733.53;5115595;28;20556;-80
2022/11/13 06:49:00;;;;;;;85.03;12.53;;;;;;;-145.69;100.00;52735.50;5115145;28;20206;-81
2022/11/13 06:51:31;;;;;;;50.70;7.73;;;;;;;-145.69;100.00;52731.56;5115336;28;20244;-80
2022/11/13 06:53:58;;;;;;;120.37;11.33;;;;;;;-145.69;100.00;52693.94;5114783;28;20204;-81
2022/11/13 06:56:25;;;;;;;65.07;8.50;;;;;;;-145.69;100.00;52691.94;5115343;28;20221;-80
2022/11/13 06:58:51;;;;;;;52.30;8.87;;;;;;;-145.69;100.00;52707.78;5114633;28;20197;-80
2022/11/13 07:01:23;;;;;;;173.97;11.83;;;;;;;-145.69;100.00;52725.63;5115200;28;20212;-80
2022/11/13 07:03:50;;;;;;;153.60;9.73;;;;;;;-145.69;100.00;52672.13;5115358;28;20198;-81
2022/11/13 07:06:19;;;;;;;132.90;11.10;;;;;;;-145.69;100.00;52709.78;5115389;28;20197;-82
2022/11/13 07:08:46;;;;;;;379.93;20.80;;;;;;;-145.69;100.00;52697.88;5115049;28;20288;-81
2022/11/13 07:11:15;;;;;;;168.37;12.17;;;;;;;-145.69;100.00;52707.78;5114974;28;20201;-81
2022/11/13 07:13:45;;;;;;;278.50;19.30;;;;;;;-145.69;100.00;52670.16;5115574;28;20197;-81
2022/11/13 07:16:13;;;;;;;157.73;15.30;;;;;;;-145.69;100.00;52686.00;5115357;28;20225;-81
2022/11/13 07:18:41;;;;;;;370.73;22.50;;;;;;;-145.69;100.00;52678.09;5114456;28;20233;-81
2022/11/13 07:21:12;;;;;;;122.50;14.97;;;;;;;-145.69;100.00;52684.03;5114690;28;20200;-81
2022/11/13 07:23:41;;;;;;;92.77;14.57;;;;;;;-145.69;100.00;52713.72;5115470;28;20193;-81
2022/11/13 07:26:11;;;;;;;196.63;16.27;;;;;;;-145.69;100.00;52709.78;5114616;28;20723;-80
2022/11/13 07:28:40;;;;;;;341.33;25.70;;;;;;;-145.69;100.00;52693.94;5114609;28;20225;-80
2022/11/13 07:31:07;;;;;;;155.97;17.20;;;;;;;-145.69;100.00;52701.84;5114722;28;20686;-81
2022/11/13 07:33:34;;;;;;;104.77;12.17;;;;;;;-145.69;100.00;52658.28;5114892;28;20198;-82
2022/11/13 07:36:06;;;;;;;80.37;12.43;;;;;;;-145.69;100.00;52701.84;5114246;28;20236;-82
2022/11/13 07:38:33;;;;;;;398.57;24.23;;;;;;;-145.69;100.00;52705.81;5114645;28;20296;-81
2022/11/13 07:41:00;;;;;;;195.20;13.30;;;;;;;-145.69;100.00;52705.81;5114578;28;20209;-82
2022/11/13 07:43:27;;;;;;;463.60;26.63;;;;;;;-145.69;100.00;52701.84;5114880;28;20212;-80
2022/11/13 07:45:54;;;;;;;469.63;24.90;;;;;;;-145.69;100.00;52689.97;5114510;28;20204;-81
2022/11/13 07:48:21;;;;;;;390.43;22.20;;;;;;;-145.69;100.00;52729.56;5114266;28;20198;-80
2022/11/13 07:50:48;;;;;;;420.13;25.30;;;;;;;-145.69;100.00;52697.88;5114209;27;20208;-80
2022/11/13 07:53:17;;;;;;;368.33;24.20;;;;;;;-145.69;100.00;52693.94;5114191;28;20201;-80
2022/11/13 07:55:43;;;;;;;251.83;18.13;;;;;;;-145.69;100.00;52676.09;5114333;28;20225;-80
2022/11/13 07:58:10;;;;;;;87.93;13.83;;;;;;;-145.69;100.00;52678.09;5114318;28;20204;-80
2022/11/13 08:00:36;;;;;;;385.60;27.07;;;;;;;-145.69;100.00;52697.88;5114254;28;20201;-80
2022/11/13 08:03:07;;;;;;;94.23;13.63;;;;;;;-145.69;100.00;52691.94;5113847;28;20194;-80
2022/11/13 08:05:34;;;;;;;331.30;20.83;;;;;;;-145.69;100.00;52733.53;5113907;28;20212;-79
2022/11/13 08:08:01;;;;;;;518.00;28.87;;;;;;;-145.69;100.00;52705.81;5114167;28;20323;-79
2022/11/13 08:10:30;;;;;;;446.97;24.67;;;;;;;-145.69;100.00;52680.06;5113808;28;20201;-79
2022/11/13 08:13:00;;;;;;;385.80;25.60;;;;;;;-145.69;100.00;52719.66;5111097;28;20198;-79
2022/11/13 08:15:27;;;;;;;51.67;13.93;;;;;;;-145.69;100.00;52701.84;5093300;28;20700;-80
2022/11/13 08:17:55;;;;;;;274.63;20.60;;;;;;;-145.69;100.00;52691.94;5093314;28;20194;-80
2022/11/13 08:20:21;;;;;;;166.03;15.13;;;;;;;-145.69;100.00;52701.84;5093384;28;20198;-79
2022/11/13 08:22:48;;;;;;;55.00;11.70;;;;;;;-145.69;100.00;52686.00;5093286;28;20198;-80
2022/11/13 08:25:15;;;;;;;267.33;18.00;;;;;;;-145.69;100.00;52695.91;5093363;28;20661;-81
2022/11/13 08:27:42;;;;;;;122.03;13.77;;;;;;;-145.69;100.00;52717.69;5093296;28;20202;-81
2022/11/13 08:30:10;;;;;;;79.67;13.23;;;;;;;-145.69;100.00;52703.81;5093505;28;20228;-81
2022/11/13 08:32:36;;;;;;;171.37;17.00;;;;;;;-145.69;100.00;52693.94;5092615;28;20666;-80
2022/11/13 08:35:03;;;;;;;45.40;9.30;;;;;;;-145.69;100.00;52699.88;5093794;28;20242;-81
2022/11/13 08:37:29;;;;;;;123.10;12.20;;;;;;;-145.69;100.00;52674.13;5093166;28;20657;-80
2022/11/13 08:39:56;;;;;;;124.87;14.73;;;;;;;-145.69;100.00;52680.06;5093923;28;20202;-81
2022/11/13 08:42:22;;;;;;;210.73;17.10;;;;;;;-145.69;100.00;52682.03;5093258;28;20204;-81
2022/11/13 08:44:50;;;;;;;133.40;13.43;;;;;;;-145.69;100.00;52697.88;5093120;28;20205;-81
2022/11/13 08:47:16;;;;;;;115.23;10.67;;;;;;;-145.69;100.00;52713.72;5093204;28;20209;-80
2022/11/13 08:49:43;;;;;;;69.13;11.67;;;;;;;-145.69;100.00;52709.78;5093284;28;20202;-80
2022/11/13 08:52:10;;;;;;;56.97;9.73;;;;;;;-145.69;100.00;52693.94;5093190;28;20202;-81
2022/11/13 08:54:36;;;;;;;159.13;14.43;;;;;;;-145.69;100.00;52682.03;5092822;28;20621;-80
2022/11/13 08:57:02;;;;;;;64.50;11.37;;;;;;;-145.69;100.00;52699.88;5092944;28;20226;-80
2022/11/13 08:59:29;;;;;;;77.73;12.43;;;;;;;-145.69;100.00;52695.91;5092944;28;20217;-79
2022/11/13 09:01:58;;;;;;;247.77;15.40;;;;;;;-145.69;100.00;52678.09;5093814;28;20198;-80
2022/11/13 09:04:25;;;;;;;78.00;8.47;;;;;;;-145.69;100.00;52709.78;5092781;28;20675;-80
2022/11/13 09:06:52;;;;;;;39.17;8.90;;;;;;;-145.69;100.00;52682.03;5092903;28;20205;-79
2022/11/13 09:09:19;;;;;;;60.73;9.67;;;;;;;-145.69;100.00;52666.19;5092892;28;20202;-80
2022/11/13 09:11:46;;;;;;;157.90;12.60;;;;;;;-145.69;100.00;52693.94;5093014;28;20206;-80
2022/11/13 09:14:13;;;;;;;21.47;8.63;;;;;;;-145.69;100.00;52678.09;5093255;28;20206;-80
2022/11/13 09:16:39;;;;;;;24.63;8.33;;;;;;;-145.69;100.00;52693.94;5113142;28;20232;-80
2022/11/13 09:19:09;;;;;;;26.77;10.20;;;;;;;-145.69;100.00;52666.19;5113454;28;20201;-80
2022/11/13 09:21:35;;;;;;;68.33;8.63;;;;;;;-145.69;100.00;52687.97;5113325;28;20208;-80
2022/11/13 09:24:02;;;;;;;34.23;6.97;;;;;;;-145.69;100.00;52676.09;5113235;28;20202;-80
2022/11/13 09:26:28;;;;;;;51.83;7.60;;;;;;;-145.69;100.00;52695.91;5113108;28;20213;-80
2022/11/13 09:28:58;;;;;;;67.03;10.17;;;;;;;-145.69;100.00;52674.13;5113068;28;20200;-80
2022/11/13 09:31:24;;;;;;;93.07;9.13;;;;;;;-145.69;100.00;52672.13;5113605;27;20548;-80
2022/11/13 09:33:50;;;;;;;28.00;6.83;;;;;;;-145.69;100.00;52686.00;5113317;28;20640;-80
2022/11/13 09:36:18;;;;;;;90.13;8.17;;;;;;;-145.69;100.00;52652.34;5113055;28;20691;-80
2022/11/13 09:38:45;;;;;;;56.40;6.83;;;;;;;-145.69;100.00;52656.28;5112857;28;20238;-80
2022/11/13 09:41:14;;;;;;;103.77;9.07;;;;;;;-145.69;100.00;52656.28;5112862;28;20193;-79
2022/11/13 09:43:44;;;;;;;65.07;6.60;;;;;;;-145.69;100.00;52652.34;5115494;28;20258;-80
2022/11/13 09:46:19;;;;;;;51.83;6.73;;;;;;;-145.69;100.00;52670.16;5116914;28;20193;-80
2022/11/13 09:48:50;;;;;;;16.70;6.10;;;;;;;-145.69;100.00;52678.09;5116964;28;20203;-80
2022/11/13 09:51:22;;;;;;;20.80;6.13;;;;;;;-145.69;100.00;52682.03;5116830;28;20197;-80
2022/11/13 09:53:48;;;;;;;14.50;5.97;;;;;;;-145.69;100.00;52686.00;5115904;28;20205;-79
2022/11/13 09:56:28;;;;;;;17.53;6.37;;;;;;;-145.69;100.00;52689.97;5116486;28;20221;-80
2022/11/13 09:59:04;;;;;;;27.27;7.37;;;;;;;-145.69;100.00;52670.16;5116418;28;20232;-80
2022/11/13 10:01:47;;;;;;;14.83;7.00;;;;;;;-145.69;100.00;52638.47;5115641;28;20197;-79
2022/11/13 10:04:19;;;;;;;21.13;7.33;;;;;;;-145.69;100.00;52670.16;5116289;28;20197;-79
2022/11/13 10:07:05;;;;;;;95.63;9.40;;;;;;;-145.69;100.00;52658.28;5116239;28;20204;-80
2022/11/13 10:09:53;;;;;;;66.20;7.50;;;;;;;-145.69;100.00;52650.34;5114102;28;20254;-79
2022/11/13 10:12:20;;;;;;;12.33;6.30;;;;;;;-145.69;100.00;52654.31;5115824;28;20197;-79
2022/11/13 10:14:51;;;;;;;18.17;8.70;;;;;;;-145.69;100.00;52660.25;5116114;28;20197;-79
2022/11/13 10:17:24;;;;;;;13.30;6.90;;;;;;;-145.69;100.00;52670.16;5101808;28;20226;-80
2022/11/13 10:19:56;;;;;;;18.90;6.77;;;;;;;-145.69;100.00;52686.00;5096639;28;20202;-83
2022/11/13 10:22:30;;;;;;;10.60;6.87;;;;;;;-145.69;100.00;52682.03;5110124;28;20197;-83
2022/11/13 10:25:03;;;;;;;17.00;7.73;;;;;;;-145.69;100.00;52670.16;5115755;28;20210;-83
2022/11/13 10:27:30;;;;;;;14.73;8.13;;;;;;;-145.69;100.00;52654.31;5116477;28;20208;-83
2022/11/13 10:29:57;;;;;;;17.00;8.77;;;;;;;-145.69;100.00;52656.28;5116262;28;20193;-79
2022/11/13 10:32:26;;;;;;;41.87;8.60;;;;;;;-145.69;100.00;52686.00;5115991;28;20202;-79
2022/11/13 10:34:57;;;;;;;38.70;9.03;;;;;;;-145.69;100.00;52644.41;5114474;28;20261;-78
2022/11/13 10:37:42;;;;;;;18.17;9.50;;;;;;;-145.69;100.00;52662.22;5115433;28;20221;-78
2022/11/13 10:40:09;;;;;;;19.87;9.10;;;;;;;-145.69;100.00;52632.53;5115705;28;20648;-79
2022/11/13 10:42:38;;;;;;;35.60;11.40;;;;;;;-145.69;100.00;52658.28;5115910;28;20223;-79
2022/11/13 10:45:13;;;;;;;27.33;11.03;;;;;;;-145.69;100.00;52686.00;5115908;28;20284;-81
2022/11/13 10:47:46;;;;;;;48.43;11.90;;;;;;;-145.69;100.00;52636.50;5115853;28;20205;-79
2022/11/13 10:50:20;;;;;;;19.63;11.33;;;;;;;-145.69;100.00;52652.34;5115612;28;20296;-79
2022/11/13 10:52:50;;;;;;;16.73;10.20;;;;;;;-145.69;100.00;52648.38;5115183;28;20193;-80
2022/11/13 10:55:22;;;;;;;18.90;10.90;;;;;;;-145.69;100.00;52642.44;5113975;28;20200;-81
2022/11/13 10:57:56;;;;;;;17.83;10.27;;;;;;;-145.69;100.00;52662.22;5116199;28;20233;-80
2022/11/13 11:00:26;;;;;;;16.33;10.37;;;;;;;-145.69;100.00;52687.97;5119452;28;20193;-79
2022/11/13 11:02:53;;;;;;;17.93;10.47;;;;;;;-145.69;100.00;52654.31;5115292;28;20198;-80
2022/11/13 11:05:21;;;;;;;21.27;12.07;;;;;;;-145.69;100.00;52648.38;5115166;28;20193;-81